sensor_id;sensor_type;location;lat;lon;timestamp;temperature;humidity
18815;DHT22;76351;44.818;20.462;2024-03-02T00:02:08;16.30;52.40
18815;DHT22;76351;44.818;20.462;2024-03-02T00:04:35;16.20;52.10
18815;DHT22;76351;44.818;20.462;2024-03-02T00:07:03;16.20;52.10
18815;DHT22;76351;44.818;20.462;2024-03-02T00:09:31;16.20;52.40
18815;DHT22;76351;44.818;20.462;2024-03-02T00:11:59;16.20;52.30
18815;DHT22;76351;44.818;20.462;2024-03-02T00:14:29;16.20;52.00
18815;DHT22;76351;44.818;20.462;2024-03-02T00:16:59;16.20;52.60
18815;DHT22;76351;44.818;20.462;2024-03-02T00:19:27;16.20;52.40
18815;DHT22;76351;44.818;20.462;2024-03-02T00:21:55;16.20;52.40
18815;DHT22;76351;44.818;20.462;2024-03-02T00:24:31;16.20;52.40
18815;DHT22;76351;44.818;20.462;2024-03-02T00:26:59;16.20;53.00
18815;DHT22;76351;44.818;20.462;2024-03-02T00:29:28;16.20;52.50
18815;DHT22;76351;44.818;20.462;2024-03-02T00:31:59;16.10;52.70
18815;DHT22;76351;44.818;20.462;2024-03-02T00:34:29;16.10;52.90
18815;DHT22;76351;44.818;20.462;2024-03-02T00:36:59;16.10;51.70
18815;DHT22;76351;44.818;20.462;2024-03-02T00:39:27;16.10;52.40
18815;DHT22;76351;44.818;20.462;2024-03-02T00:41:55;16.10;52.80
18815;DHT22;76351;44.818;20.462;2024-03-02T00:44:25;16.10;52.80
18815;DHT22;76351;44.818;20.462;2024-03-02T00:46:55;16.10;53.00
18815;DHT22;76351;44.818;20.462;2024-03-02T00:49:26;16.10;52.10
18815;DHT22;76351;44.818;20.462;2024-03-02T00:51:54;16.10;53.00
18815;DHT22;76351;44.818;20.462;2024-03-02T00:54:23;16.10;52.70
18815;DHT22;76351;44.818;20.462;2024-03-02T00:56:51;16.10;52.70
18815;DHT22;76351;44.818;20.462;2024-03-02T00:59:21;16.00;53.10
18815;DHT22;76351;44.818;20.462;2024-03-02T01:01:48;16.00;53.00
18815;DHT22;76351;44.818;20.462;2024-03-02T01:04:16;16.00;53.20
18815;DHT22;76351;44.818;20.462;2024-03-02T01:06:45;16.00;53.10
18815;DHT22;76351;44.818;20.462;2024-03-02T01:09:14;16.00;53.00
18815;DHT22;76351;44.818;20.462;2024-03-02T01:11:43;16.00;53.10
18815;DHT22;76351;44.818;20.462;2024-03-02T01:14:10;16.00;52.90
18815;DHT22;76351;44.818;20.462;2024-03-02T01:16:38;16.00;53.20
18815;DHT22;76351;44.818;20.462;2024-03-02T01:19:07;16.00;53.00
18815;DHT22;76351;44.818;20.462;2024-03-02T01:21:35;16.00;52.30
18815;DHT22;76351;44.818;20.462;2024-03-02T01:24:05;16.00;53.40
18815;DHT22;76351;44.818;20.462;2024-03-02T01:26:32;16.00;53.20
18815;DHT22;76351;44.818;20.462;2024-03-02T01:29:00;16.00;53.20
18815;DHT22;76351;44.818;20.462;2024-03-02T01:31:28;15.90;53.40
18815;DHT22;76351;44.818;20.462;2024-03-02T01:33:58;16.00;53.10
18815;DHT22;76351;44.818;20.462;2024-03-02T01:36:26;16.00;53.50
18815;DHT22;76351;44.818;20.462;2024-03-02T01:38:54;16.00;53.50
18815;DHT22;76351;44.818;20.462;2024-03-02T01:41:23;15.90;52.50
18815;DHT22;76351;44.818;20.462;2024-03-02T01:43:50;15.90;52.70
18815;DHT22;76351;44.818;20.462;2024-03-02T01:46:18;15.90;52.30
18815;DHT22;76351;44.818;20.462;2024-03-02T01:48:46;15.90;52.50
18815;DHT22;76351;44.818;20.462;2024-03-02T01:51:13;15.90;53.20
18815;DHT22;76351;44.818;20.462;2024-03-02T01:53:41;15.90;53.50
18815;DHT22;76351;44.818;20.462;2024-03-02T01:56:09;15.80;53.40
18815;DHT22;76351;44.818;20.462;2024-03-02T01:58:38;15.80;53.80
18815;DHT22;76351;44.818;20.462;2024-03-02T02:01:06;15.80;53.80
18815;DHT22;76351;44.818;20.462;2024-03-02T02:03:33;15.80;53.60
18815;DHT22;76351;44.818;20.462;2024-03-02T02:06:01;15.80;53.50
18815;DHT22;76351;44.818;20.462;2024-03-02T02:08:31;15.80;53.40
18815;DHT22;76351;44.818;20.462;2024-03-02T02:10:59;15.80;53.60
18815;DHT22;76351;44.818;20.462;2024-03-02T02:13:27;15.80;53.90
18815;DHT22;76351;44.818;20.462;2024-03-02T02:15:56;15.80;53.40
18815;DHT22;76351;44.818;20.462;2024-03-02T02:18:31;15.80;53.80
18815;DHT22;76351;44.818;20.462;2024-03-02T02:20:59;15.80;54.00
18815;DHT22;76351;44.818;20.462;2024-03-02T02:23:28;15.80;53.90
18815;DHT22;76351;44.818;20.462;2024-03-02T02:25:55;15.80;53.90
18815;DHT22;76351;44.818;20.462;2024-03-02T02:28:23;15.70;53.80
18815;DHT22;76351;44.818;20.462;2024-03-02T02:30:50;15.80;54.00
18815;DHT22;76351;44.818;20.462;2024-03-02T02:33:18;15.70;54.20
18815;DHT22;76351;44.818;20.462;2024-03-02T02:35:45;15.80;54.00
18815;DHT22;76351;44.818;20.462;2024-03-02T02:38:13;15.80;53.90
18815;DHT22;76351;44.818;20.462;2024-03-02T02:40:42;15.80;54.10
18815;DHT22;76351;44.818;20.462;2024-03-02T02:43:10;15.80;54.40
18815;DHT22;76351;44.818;20.462;2024-03-02T02:45:37;15.80;54.20
18815;DHT22;76351;44.818;20.462;2024-03-02T02:48:05;15.70;53.60
18815;DHT22;76351;44.818;20.462;2024-03-02T02:50:33;15.80;54.30
18815;DHT22;76351;44.818;20.462;2024-03-02T02:53:00;15.80;54.50
18815;DHT22;76351;44.818;20.462;2024-03-02T02:55:28;15.80;54.20
18815;DHT22;76351;44.818;20.462;2024-03-02T02:57:57;15.70;54.40
18815;DHT22;76351;44.818;20.462;2024-03-02T03:00:24;15.70;54.60
18815;DHT22;76351;44.818;20.462;2024-03-02T03:02:52;15.80;54.20
18815;DHT22;76351;44.818;20.462;2024-03-02T03:05:19;15.80;54.20
18815;DHT22;76351;44.818;20.462;2024-03-02T03:07:47;15.70;54.60
18815;DHT22;76351;44.818;20.462;2024-03-02T03:10:16;15.70;54.40
18815;DHT22;76351;44.818;20.462;2024-03-02T03:12:44;15.80;54.30
18815;DHT22;76351;44.818;20.462;2024-03-02T03:15:14;15.80;54.50
18815;DHT22;76351;44.818;20.462;2024-03-02T03:17:42;15.80;54.70
18815;DHT22;76351;44.818;20.462;2024-03-02T03:20:12;15.80;54.00
18815;DHT22;76351;44.818;20.462;2024-03-02T03:22:40;15.80;54.00
18815;DHT22;76351;44.818;20.462;2024-03-02T03:25:08;15.80;54.50
18815;DHT22;76351;44.818;20.462;2024-03-02T03:27:36;15.70;54.60
18815;DHT22;76351;44.818;20.462;2024-03-02T03:30:04;15.80;54.70
18815;DHT22;76351;44.818;20.462;2024-03-02T03:32:33;15.80;54.60
18815;DHT22;76351;44.818;20.462;2024-03-02T03:35:01;15.80;55.10
18815;DHT22;76351;44.818;20.462;2024-03-02T03:37:28;15.80;55.20
18815;DHT22;76351;44.818;20.462;2024-03-02T03:39:58;15.70;55.00
18815;DHT22;76351;44.818;20.462;2024-03-02T03:42:27;15.70;55.40
18815;DHT22;76351;44.818;20.462;2024-03-02T03:44:54;15.70;55.40
18815;DHT22;76351;44.818;20.462;2024-03-02T03:47:25;15.70;55.80
18815;DHT22;76351;44.818;20.462;2024-03-02T03:49:54;15.70;56.00
18815;DHT22;76351;44.818;20.462;2024-03-02T03:52:22;15.70;55.90
18815;DHT22;76351;44.818;20.462;2024-03-02T03:54:49;15.70;55.50
18815;DHT22;76351;44.818;20.462;2024-03-02T03:57:17;15.70;55.20
18815;DHT22;76351;44.818;20.462;2024-03-02T03:59:45;15.70;55.90
18815;DHT22;76351;44.818;20.462;2024-03-02T04:02:12;15.60;55.80
18815;DHT22;76351;44.818;20.462;2024-03-02T04:04:40;15.60;56.10
18815;DHT22;76351;44.818;20.462;2024-03-02T04:07:10;15.60;56.00
18815;DHT22;76351;44.818;20.462;2024-03-02T04:09:38;15.60;55.50
18815;DHT22;76351;44.818;20.462;2024-03-02T04:12:05;15.60;56.10
18815;DHT22;76351;44.818;20.462;2024-03-02T04:14:35;15.60;55.70
18815;DHT22;76351;44.818;20.462;2024-03-02T04:17:03;15.60;56.40
18815;DHT22;76351;44.818;20.462;2024-03-02T04:19:31;15.60;56.60
18815;DHT22;76351;44.818;20.462;2024-03-02T04:21:58;15.60;56.50
18815;DHT22;76351;44.818;20.462;2024-03-02T04:24:27;15.60;56.50
18815;DHT22;76351;44.818;20.462;2024-03-02T04:26:55;15.60;56.40
18815;DHT22;76351;44.818;20.462;2024-03-02T04:29:22;15.60;56.80
18815;DHT22;76351;44.818;20.462;2024-03-02T04:31:50;15.60;57.00
18815;DHT22;76351;44.818;20.462;2024-03-02T04:34:17;15.50;56.60
18815;DHT22;76351;44.818;20.462;2024-03-02T04:36:45;15.60;56.60
18815;DHT22;76351;44.818;20.462;2024-03-02T04:39:13;15.50;56.60
18815;DHT22;76351;44.818;20.462;2024-03-02T04:41:42;15.50;56.70
18815;DHT22;76351;44.818;20.462;2024-03-02T04:44:13;15.50;57.10
18815;DHT22;76351;44.818;20.462;2024-03-02T04:46:40;15.50;57.40
18815;DHT22;76351;44.818;20.462;2024-03-02T04:49:08;15.50;57.10
18815;DHT22;76351;44.818;20.462;2024-03-02T04:51:36;15.50;57.20
18815;DHT22;76351;44.818;20.462;2024-03-02T04:54:06;15.50;57.30
18815;DHT22;76351;44.818;20.462;2024-03-02T04:56:33;15.50;57.10
18815;DHT22;76351;44.818;20.462;2024-03-02T04:59:16;15.50;57.00
18815;DHT22;76351;44.818;20.462;2024-03-02T05:01:45;15.40;57.20
18815;DHT22;76351;44.818;20.462;2024-03-02T05:04:13;15.40;57.20
18815;DHT22;76351;44.818;20.462;2024-03-02T05:06:41;15.40;57.40
18815;DHT22;76351;44.818;20.462;2024-03-02T05:09:08;15.40;57.40
18815;DHT22;76351;44.818;20.462;2024-03-02T05:11:36;15.30;57.30
18815;DHT22;76351;44.818;20.462;2024-03-02T05:14:27;15.30;57.50
18815;DHT22;76351;44.818;20.462;2024-03-02T05:16:55;15.30;57.30
18815;DHT22;76351;44.818;20.462;2024-03-02T05:19:22;15.30;57.40
18815;DHT22;76351;44.818;20.462;2024-03-02T05:21:49;15.30;57.60
18815;DHT22;76351;44.818;20.462;2024-03-02T05:24:17;15.20;57.00
18815;DHT22;76351;44.818;20.462;2024-03-02T05:26:45;15.20;57.30
18815;DHT22;76351;44.818;20.462;2024-03-02T05:29:12;15.20;57.30
18815;DHT22;76351;44.818;20.462;2024-03-02T05:31:42;15.10;57.50
18815;DHT22;76351;44.818;20.462;2024-03-02T05:34:09;15.10;57.80
18815;DHT22;76351;44.818;20.462;2024-03-02T05:36:37;15.10;57.60
18815;DHT22;76351;44.818;20.462;2024-03-02T05:39:05;15.10;57.50
18815;DHT22;76351;44.818;20.462;2024-03-02T05:41:35;15.10;57.40
18815;DHT22;76351;44.818;20.462;2024-03-02T05:44:04;15.10;57.40
18815;DHT22;76351;44.818;20.462;2024-03-02T05:46:32;15.10;57.60
18815;DHT22;76351;44.818;20.462;2024-03-02T05:49:01;15.10;57.70
18815;DHT22;76351;44.818;20.462;2024-03-02T05:51:28;15.10;57.80
18815;DHT22;76351;44.818;20.462;2024-03-02T05:53:56;15.00;57.50
18815;DHT22;76351;44.818;20.462;2024-03-02T05:56:24;15.00;57.40
18815;DHT22;76351;44.818;20.462;2024-03-02T05:58:51;15.00;57.60
18815;DHT22;76351;44.818;20.462;2024-03-02T06:01:33;15.00;57.80
18815;DHT22;76351;44.818;20.462;2024-03-02T06:04:02;15.00;57.40
18815;DHT22;76351;44.818;20.462;2024-03-02T06:06:30;15.00;57.80
18815;DHT22;76351;44.818;20.462;2024-03-02T06:08:58;15.00;57.30
18815;DHT22;76351;44.818;20.462;2024-03-02T06:11:26;15.00;57.70
18815;DHT22;76351;44.818;20.462;2024-03-02T06:13:53;14.90;57.30
18815;DHT22;76351;44.818;20.462;2024-03-02T06:16:21;14.90;57.40
18815;DHT22;76351;44.818;20.462;2024-03-02T06:18:48;14.90;57.70
18815;DHT22;76351;44.818;20.462;2024-03-02T06:21:17;14.90;57.30
18815;DHT22;76351;44.818;20.462;2024-03-02T06:23:45;14.90;57.50
18815;DHT22;76351;44.818;20.462;2024-03-02T06:26:13;14.90;57.80
18815;DHT22;76351;44.818;20.462;2024-03-02T06:28:41;14.90;57.70
18815;DHT22;76351;44.818;20.462;2024-03-02T06:31:08;15.00;57.80
18815;DHT22;76351;44.818;20.462;2024-03-02T06:33:36;15.00;57.70
18815;DHT22;76351;44.818;20.462;2024-03-02T06:36:04;15.00;57.80
18815;DHT22;76351;44.818;20.462;2024-03-02T06:38:36;15.00;57.10
18815;DHT22;76351;44.818;20.462;2024-03-02T06:41:03;15.10;57.30
18815;DHT22;76351;44.818;20.462;2024-03-02T06:43:31;15.00;57.30
18815;DHT22;76351;44.818;20.462;2024-03-02T06:45:58;15.10;57.30
18815;DHT22;76351;44.818;20.462;2024-03-02T06:48:27;15.10;57.50
18815;DHT22;76351;44.818;20.462;2024-03-02T06:50:56;15.10;57.30
18815;DHT22;76351;44.818;20.462;2024-03-02T06:53:24;15.20;57.30
18815;DHT22;76351;44.818;20.462;2024-03-02T06:55:53;15.20;57.10
18815;DHT22;76351;44.818;20.462;2024-03-02T06:58:20;15.20;57.10
18815;DHT22;76351;44.818;20.462;2024-03-02T07:00:48;15.20;56.80
18815;DHT22;76351;44.818;20.462;2024-03-02T07:03:15;15.30;57.10
18815;DHT22;76351;44.818;20.462;2024-03-02T07:05:43;15.30;56.70
18815;DHT22;76351;44.818;20.462;2024-03-02T07:08:10;15.40;56.70
18815;DHT22;76351;44.818;20.462;2024-03-02T07:10:38;15.40;56.80
18815;DHT22;76351;44.818;20.462;2024-03-02T07:13:11;15.40;56.30
18815;DHT22;76351;44.818;20.462;2024-03-02T07:15:42;15.50;56.00
18815;DHT22;76351;44.818;20.462;2024-03-02T07:18:42;15.50;55.90
18815;DHT22;76351;44.818;20.462;2024-03-02T07:21:17;15.50;55.90
18815;DHT22;76351;44.818;20.462;2024-03-02T07:23:47;15.50;55.90
18815;DHT22;76351;44.818;20.462;2024-03-02T07:26:15;15.60;55.50
18815;DHT22;76351;44.818;20.462;2024-03-02T07:28:52;15.60;55.00
18815;DHT22;76351;44.818;20.462;2024-03-02T07:31:25;15.60;55.90
18815;DHT22;76351;44.818;20.462;2024-03-02T07:33:59;15.60;55.00
18815;DHT22;76351;44.818;20.462;2024-03-02T07:36:27;15.60;56.50
18815;DHT22;76351;44.818;20.462;2024-03-02T07:38:59;15.60;55.70
18815;DHT22;76351;44.818;20.462;2024-03-02T07:41:27;15.60;55.60
18815;DHT22;76351;44.818;20.462;2024-03-02T07:43:56;15.70;55.80
18815;DHT22;76351;44.818;20.462;2024-03-02T07:46:24;15.70;55.80
18815;DHT22;76351;44.818;20.462;2024-03-02T07:48:54;15.70;56.10
18815;DHT22;76351;44.818;20.462;2024-03-02T07:51:21;15.70;56.10
18815;DHT22;76351;44.818;20.462;2024-03-02T07:53:49;15.70;55.80
18815;DHT22;76351;44.818;20.462;2024-03-02T07:56:17;15.70;55.90
18815;DHT22;76351;44.818;20.462;2024-03-02T07:58:51;15.70;54.60
18815;DHT22;76351;44.818;20.462;2024-03-02T08:01:20;15.70;55.80
18815;DHT22;76351;44.818;20.462;2024-03-02T08:03:48;15.80;55.90
18815;DHT22;76351;44.818;20.462;2024-03-02T08:06:16;15.80;55.60
18815;DHT22;76351;44.818;20.462;2024-03-02T08:08:46;15.80;55.60
18815;DHT22;76351;44.818;20.462;2024-03-02T08:11:14;15.80;55.70
18815;DHT22;76351;44.818;20.462;2024-03-02T08:13:42;15.90;55.90
18815;DHT22;76351;44.818;20.462;2024-03-02T08:16:10;15.90;55.10
18815;DHT22;76351;44.818;20.462;2024-03-02T08:18:38;15.90;55.90
18815;DHT22;76351;44.818;20.462;2024-03-02T08:21:05;16.00;55.40
18815;DHT22;76351;44.818;20.462;2024-03-02T08:23:36;16.00;55.50
18815;DHT22;76351;44.818;20.462;2024-03-02T08:26:04;16.00;55.50
18815;DHT22;76351;44.818;20.462;2024-03-02T08:28:35;16.10;54.80
18815;DHT22;76351;44.818;20.462;2024-03-02T08:31:03;16.10;55.00
18815;DHT22;76351;44.818;20.462;2024-03-02T08:33:34;16.20;55.50
18815;DHT22;76351;44.818;20.462;2024-03-02T08:36:05;16.20;54.80
18815;DHT22;76351;44.818;20.462;2024-03-02T08:38:33;16.30;55.30
18815;DHT22;76351;44.818;20.462;2024-03-02T08:41:00;16.30;55.10
18815;DHT22;76351;44.818;20.462;2024-03-02T08:43:29;16.40;55.20
18815;DHT22;76351;44.818;20.462;2024-03-02T08:45:57;16.40;55.30
18815;DHT22;76351;44.818;20.462;2024-03-02T08:48:30;16.50;55.30
18815;DHT22;76351;44.818;20.462;2024-03-02T08:51:06;16.50;54.50
18815;DHT22;76351;44.818;20.462;2024-03-02T08:53:35;16.60;53.40
18815;DHT22;76351;44.818;20.462;2024-03-02T08:56:03;16.70;54.40
18815;DHT22;76351;44.818;20.462;2024-03-02T08:58:32;16.80;54.40
18815;DHT22;76351;44.818;20.462;2024-03-02T09:00:59;16.80;54.80
18815;DHT22;76351;44.818;20.462;2024-03-02T09:03:27;16.90;54.40
18815;DHT22;76351;44.818;20.462;2024-03-02T09:05:55;17.00;54.60
18815;DHT22;76351;44.818;20.462;2024-03-02T09:08:25;17.00;54.00
18815;DHT22;76351;44.818;20.462;2024-03-02T09:10:53;17.10;54.10
18815;DHT22;76351;44.818;20.462;2024-03-02T09:13:21;17.10;54.10
18815;DHT22;76351;44.818;20.462;2024-03-02T09:15:48;17.20;54.00
18815;DHT22;76351;44.818;20.462;2024-03-02T09:18:16;17.20;53.20
18815;DHT22;76351;44.818;20.462;2024-03-02T09:20:44;17.30;53.90
18815;DHT22;76351;44.818;20.462;2024-03-02T09:23:18;17.40;53.80
18815;DHT22;76351;44.818;20.462;2024-03-02T09:25:48;17.30;53.50
18815;DHT22;76351;44.818;20.462;2024-03-02T09:28:16;17.50;53.10
18815;DHT22;76351;44.818;20.462;2024-03-02T09:30:43;17.50;53.40
18815;DHT22;76351;44.818;20.462;2024-03-02T09:33:11;17.60;53.30
18815;DHT22;76351;44.818;20.462;2024-03-02T09:35:39;17.60;52.80
18815;DHT22;76351;44.818;20.462;2024-03-02T09:38:06;17.70;52.30
18815;DHT22;76351;44.818;20.462;2024-03-02T09:40:34;17.70;53.10
18815;DHT22;76351;44.818;20.462;2024-03-02T09:43:04;17.80;53.30
18815;DHT22;76351;44.818;20.462;2024-03-02T09:45:31;17.90;53.10
18815;DHT22;76351;44.818;20.462;2024-03-02T09:47:59;17.90;53.00
18815;DHT22;76351;44.818;20.462;2024-03-02T09:50:27;17.90;53.00
18815;DHT22;76351;44.818;20.462;2024-03-02T09:52:54;18.00;53.10
18815;DHT22;76351;44.818;20.462;2024-03-02T09:55:22;18.00;52.90
18815;DHT22;76351;44.818;20.462;2024-03-02T09:57:51;18.10;52.80
18815;DHT22;76351;44.818;20.462;2024-03-02T10:00:20;18.20;53.00
18815;DHT22;76351;44.818;20.462;2024-03-02T10:02:48;18.30;52.80
18815;DHT22;76351;44.818;20.462;2024-03-02T10:05:24;18.30;51.50
18815;DHT22;76351;44.818;20.462;2024-03-02T10:08:01;18.40;52.50
18815;DHT22;76351;44.818;20.462;2024-03-02T10:10:36;18.60;52.10
18815;DHT22;76351;44.818;20.462;2024-03-02T10:13:10;18.70;51.90
18815;DHT22;76351;44.818;20.462;2024-03-02T10:15:40;18.70;52.30
18815;DHT22;76351;44.818;20.462;2024-03-02T10:18:12;18.90;51.80
18815;DHT22;76351;44.818;20.462;2024-03-02T10:20:40;19.00;51.90
18815;DHT22;76351;44.818;20.462;2024-03-02T10:23:12;19.20;51.70
18815;DHT22;76351;44.818;20.462;2024-03-02T10:25:43;19.30;51.10
18815;DHT22;76351;44.818;20.462;2024-03-02T10:28:11;19.50;51.20
18815;DHT22;76351;44.818;20.462;2024-03-02T10:30:40;19.50;50.50
18815;DHT22;76351;44.818;20.462;2024-03-02T10:33:08;19.60;50.40
18815;DHT22;76351;44.818;20.462;2024-03-02T10:35:36;19.70;50.40
18815;DHT22;76351;44.818;20.462;2024-03-02T10:38:05;19.70;50.30
18815;DHT22;76351;44.818;20.462;2024-03-02T10:40:33;19.70;50.10
18815;DHT22;76351;44.818;20.462;2024-03-02T10:43:01;19.70;50.10
18815;DHT22;76351;44.818;20.462;2024-03-02T10:45:33;19.70;50.10
18815;DHT22;76351;44.818;20.462;2024-03-02T10:48:03;19.70;50.10
18815;DHT22;76351;44.818;20.462;2024-03-02T10:50:31;19.70;50.00
18815;DHT22;76351;44.818;20.462;2024-03-02T10:52:59;19.70;49.90
18815;DHT22;76351;44.818;20.462;2024-03-02T10:55:27;19.70;49.80
18815;DHT22;76351;44.818;20.462;2024-03-02T10:57:55;19.70;49.80
18815;DHT22;76351;44.818;20.462;2024-03-02T11:00:25;19.70;49.40
18815;DHT22;76351;44.818;20.462;2024-03-02T11:02:56;19.80;49.80
18815;DHT22;76351;44.818;20.462;2024-03-02T11:05:35;19.80;49.50
18815;DHT22;76351;44.818;20.462;2024-03-02T11:08:07;19.70;49.00
18815;DHT22;76351;44.818;20.462;2024-03-02T11:10:37;19.80;49.10
18815;DHT22;76351;44.818;20.462;2024-03-02T11:13:09;19.80;49.70
18815;DHT22;76351;44.818;20.462;2024-03-02T11:15:40;19.80;49.70
18815;DHT22;76351;44.818;20.462;2024-03-02T11:18:12;19.80;49.70
18815;DHT22;76351;44.818;20.462;2024-03-02T11:20:42;19.80;49.70
18815;DHT22;76351;44.818;20.462;2024-03-02T11:23:10;19.80;49.60
18815;DHT22;76351;44.818;20.462;2024-03-02T11:25:38;19.80;49.50
18815;DHT22;76351;44.818;20.462;2024-03-02T11:28:06;19.90;49.20
18815;DHT22;76351;44.818;20.462;2024-03-02T11:30:51;19.90;49.50
18815;DHT22;76351;44.818;20.462;2024-03-02T11:33:26;20.00;49.20
18815;DHT22;76351;44.818;20.462;2024-03-02T11:35:57;20.00;49.10
18815;DHT22;76351;44.818;20.462;2024-03-02T11:38:31;20.10;48.60
18815;DHT22;76351;44.818;20.462;2024-03-02T11:41:00;20.10;48.80
18815;DHT22;76351;44.818;20.462;2024-03-02T11:43:29;20.10;49.90
18815;DHT22;76351;44.818;20.462;2024-03-02T11:45:59;20.20;49.00
18815;DHT22;76351;44.818;20.462;2024-03-02T11:48:27;20.30;49.10
18815;DHT22;76351;44.818;20.462;2024-03-02T11:50:58;20.20;48.60
18815;DHT22;76351;44.818;20.462;2024-03-02T11:53:27;20.30;48.60
18815;DHT22;76351;44.818;20.462;2024-03-02T11:55:55;20.30;48.90
18815;DHT22;76351;44.818;20.462;2024-03-02T11:58:23;20.30;48.40
18815;DHT22;76351;44.818;20.462;2024-03-02T12:00:52;20.40;48.70
18815;DHT22;76351;44.818;20.462;2024-03-02T12:03:21;20.40;48.40
18815;DHT22;76351;44.818;20.462;2024-03-02T12:05:50;20.40;48.60
18815;DHT22;76351;44.818;20.462;2024-03-02T12:08:20;20.40;48.50
18815;DHT22;76351;44.818;20.462;2024-03-02T12:10:58;20.40;48.00
18815;DHT22;76351;44.818;20.462;2024-03-02T12:13:26;20.50;47.90
18815;DHT22;76351;44.818;20.462;2024-03-02T12:15:54;20.40;48.10
18815;DHT22;76351;44.818;20.462;2024-03-02T12:18:22;20.40;48.00
18815;DHT22;76351;44.818;20.462;2024-03-02T12:20:50;20.30;47.90
18815;DHT22;76351;44.818;20.462;2024-03-02T12:23:25;20.30;48.00
18815;DHT22;76351;44.818;20.462;2024-03-02T12:25:52;20.30;48.00
18815;DHT22;76351;44.818;20.462;2024-03-02T12:28:20;20.20;48.20
18815;DHT22;76351;44.818;20.462;2024-03-02T12:30:49;20.20;48.10
18815;DHT22;76351;44.818;20.462;2024-03-02T12:33:18;20.20;48.30
18815;DHT22;76351;44.818;20.462;2024-03-02T12:35:48;20.30;48.20
18815;DHT22;76351;44.818;20.462;2024-03-02T12:38:15;20.30;48.40
18815;DHT22;76351;44.818;20.462;2024-03-02T12:40:45;20.30;48.10
18815;DHT22;76351;44.818;20.462;2024-03-02T12:43:14;20.30;48.90
18815;DHT22;76351;44.818;20.462;2024-03-02T12:45:42;20.30;47.90
18815;DHT22;76351;44.818;20.462;2024-03-02T12:48:10;20.40;48.10
18815;DHT22;76351;44.818;20.462;2024-03-02T12:50:39;20.40;48.10
18815;DHT22;76351;44.818;20.462;2024-03-02T12:53:06;20.40;48.00
18815;DHT22;76351;44.818;20.462;2024-03-02T12:55:35;20.40;48.00
18815;DHT22;76351;44.818;20.462;2024-03-02T12:58:04;20.40;48.00
18815;DHT22;76351;44.818;20.462;2024-03-02T13:00:32;20.40;47.50
18815;DHT22;76351;44.818;20.462;2024-03-02T13:03:01;20.50;47.70
18815;DHT22;76351;44.818;20.462;2024-03-02T13:05:30;20.50;47.60
18815;DHT22;76351;44.818;20.462;2024-03-02T13:07:59;20.50;47.60
18815;DHT22;76351;44.818;20.462;2024-03-02T13:10:27;20.50;47.70
18815;DHT22;76351;44.818;20.462;2024-03-02T13:12:56;20.50;47.50
18815;DHT22;76351;44.818;20.462;2024-03-02T13:15:26;20.40;47.40
18815;DHT22;76351;44.818;20.462;2024-03-02T13:17:54;20.50;47.30
18815;DHT22;76351;44.818;20.462;2024-03-02T13:20:30;20.40;47.60
18815;DHT22;76351;44.818;20.462;2024-03-02T13:22:58;20.40;47.60
18815;DHT22;76351;44.818;20.462;2024-03-02T13:25:26;20.40;47.70
18815;DHT22;76351;44.818;20.462;2024-03-02T13:27:54;20.30;47.50
18815;DHT22;76351;44.818;20.462;2024-03-02T13:30:22;20.40;47.70
18815;DHT22;76351;44.818;20.462;2024-03-02T13:32:51;20.40;47.90
18815;DHT22;76351;44.818;20.462;2024-03-02T13:35:19;20.40;47.80
18815;DHT22;76351;44.818;20.462;2024-03-02T13:37:46;20.50;47.80
18815;DHT22;76351;44.818;20.462;2024-03-02T13:40:14;20.50;48.00
18815;DHT22;76351;44.818;20.462;2024-03-02T13:42:48;20.50;47.70
18815;DHT22;76351;44.818;20.462;2024-03-02T13:45:21;20.60;47.30
18815;DHT22;76351;44.818;20.462;2024-03-02T13:47:52;20.60;47.10
18815;DHT22;76351;44.818;20.462;2024-03-02T13:50:27;20.70;46.80
18815;DHT22;76351;44.818;20.462;2024-03-02T13:53:05;20.70;47.20
18815;DHT22;76351;44.818;20.462;2024-03-02T13:55:38;20.70;46.20
18815;DHT22;76351;44.818;20.462;2024-03-02T13:58:14;20.70;46.50
18815;DHT22;76351;44.818;20.462;2024-03-02T14:00:45;20.60;46.40
18815;DHT22;76351;44.818;20.462;2024-03-02T14:03:21;20.60;46.30
18815;DHT22;76351;44.818;20.462;2024-03-02T14:05:56;20.50;47.30
18815;DHT22;76351;44.818;20.462;2024-03-02T14:08:25;20.50;46.90
18815;DHT22;76351;44.818;20.462;2024-03-02T14:10:54;20.50;46.40
18815;DHT22;76351;44.818;20.462;2024-03-02T14:13:29;20.40;47.20
18815;DHT22;76351;44.818;20.462;2024-03-02T14:16:00;20.30;46.40
18815;DHT22;76351;44.818;20.462;2024-03-02T14:18:34;20.30;46.90
18815;DHT22;76351;44.818;20.462;2024-03-02T14:21:02;20.20;47.30
18815;DHT22;76351;44.818;20.462;2024-03-02T14:23:30;20.20;46.60
18815;DHT22;76351;44.818;20.462;2024-03-02T14:25:57;20.20;46.20
18815;DHT22;76351;44.818;20.462;2024-03-02T14:28:27;20.10;46.20
18815;DHT22;76351;44.818;20.462;2024-03-02T14:30:55;20.10;47.10
18815;DHT22;76351;44.818;20.462;2024-03-02T14:33:23;20.10;46.30
18815;DHT22;76351;44.818;20.462;2024-03-02T14:35:53;20.00;46.50
18815;DHT22;76351;44.818;20.462;2024-03-02T14:38:23;20.00;47.60
18815;DHT22;76351;44.818;20.462;2024-03-02T14:40:53;20.00;47.10
18815;DHT22;76351;44.818;20.462;2024-03-02T14:43:21;19.90;47.20
18815;DHT22;76351;44.818;20.462;2024-03-02T14:45:53;19.90;47.50
18815;DHT22;76351;44.818;20.462;2024-03-02T14:48:21;19.90;47.10
18815;DHT22;76351;44.818;20.462;2024-03-02T14:50:49;19.80;47.10
18815;DHT22;76351;44.818;20.462;2024-03-02T14:53:24;19.80;46.70
18815;DHT22;76351;44.818;20.462;2024-03-02T14:55:52;19.80;47.40
18815;DHT22;76351;44.818;20.462;2024-03-02T14:58:20;19.70;47.10
18815;DHT22;76351;44.818;20.462;2024-03-02T15:00:48;19.70;47.20
18815;DHT22;76351;44.818;20.462;2024-03-02T15:03:15;19.70;47.30
18815;DHT22;76351;44.818;20.462;2024-03-02T15:05:43;19.60;47.50
18815;DHT22;76351;44.818;20.462;2024-03-02T15:08:12;19.60;47.80
18815;DHT22;76351;44.818;20.462;2024-03-02T15:10:46;19.60;47.50
18815;DHT22;76351;44.818;20.462;2024-03-02T15:13:17;19.60;47.40
18815;DHT22;76351;44.818;20.462;2024-03-02T15:15:46;19.50;48.00
18815;DHT22;76351;44.818;20.462;2024-03-02T15:18:16;19.50;47.00
18815;DHT22;76351;44.818;20.462;2024-03-02T15:20:48;19.50;47.40
18815;DHT22;76351;44.818;20.462;2024-03-02T15:23:17;19.40;47.20
18815;DHT22;76351;44.818;20.462;2024-03-02T15:25:46;19.40;47.50
18815;DHT22;76351;44.818;20.462;2024-03-02T15:28:14;19.40;46.90